Impacts METAR Board
IDs:

KPDX - Portland Intl Arpt, OR, US

Updated at: 0800 UTC 16 Oct 2018
Potential Impact None Slight Moderate High
Time 15/20Z 15/21Z 15/22Z 15/23Z 16/00Z 16/01Z 16/02Z 16/03Z 16/04Z 16/05Z 16/06Z 16/07Z 16/08Z
Temp65 68 71 74 72 69 63 62 60 56 57 56 51
Dewpt37 36 37 40 34 36 34 34 38 41 42 48 45
Altim30.29 30.27 30.25 30.23 30.22 30.21 30.22 30.22 30.23 30.24 30.25 30.26 30.26
VIS10 10 10 10 10 10 10 10 10 10 10 10 10
CIG-- -- -- -- -- -- -- -- -- -- -- -- --
CoverFEWFEWFEWFEWFEWFEWFEWCLRCLRCLRCLRCLRCLR
FltCatVFRVFRVFRVFRVFRVFRVFRVFRVFRVFRVFRVFRVFR
WX--------------------------
WDir00034011011012012002800330300
WSpd3 3 0 3 4 6 8 3 0 5 0 4 4
WGst-- -- -- -- -- -- -- -- -- -- -- -- --
Raw hourly METARs
KPDX 151953Z VRB03KT 10SM FEW250 18/03 A3029 RMK AO2 SLP255 T01830028
KPDX 152053Z VRB03KT 10SM FEW250 20/02 A3027 RMK AO2 SLP248 T02000022 58018
KPDX 152153Z 00000KT 10SM FEW250 22/03 A3025 RMK AO2 SLP243 T02170028
KPDX 152253Z 34003KT 10SM FEW250 23/04 A3023 RMK AO2 SLP237 T02330044
KPDX 152353Z 11004KT 10SM FEW250 22/01 A3022 RMK AO2 SLP232 T02220011 10239 20144 58016
KPDX 160053Z 11006KT 10SM FEW250 21/02 A3021 RMK AO2 SLP230 T02060022
KPDX 160153Z 12008KT 10SM FEW250 17/01 A3022 RMK AO2 SLP232 T01720011
KPDX 160253Z 12003KT 10SM CLR 17/01 A3022 RMK AO2 SLP233 T01670011 55000
KPDX 160353Z 00000KT 10SM CLR 16/03 A3023 RMK AO2 SLP237 T01560033
KPDX 160453Z 28005KT 10SM CLR 13/05 A3024 RMK AO2 SLP241 T01330050
KPDX 160553Z 00000KT 10SM CLR 14/06 A3025 RMK AO2 SLP243 T01390056 10222 20117 51011
KPDX 160653Z 33004KT 10SM CLR 13/09 A3026 RMK AO2 SLP244 T01330089
KPDX 160753Z 30004KT 10SM CLR 11/07 A3026 RMK AO2 SLP245 T01060072 402390044



Page loaded:  08:06 UTC  |   01:06 AM Pacific  |   02:06 AM Mountain  |   03:06 AM Central  |   04:06 AM Eastern

 

ADVISORIES

FORECASTS

FORECASTS

OBSERVATIONS

USER TOOLS

ABOUT US